Berkey, Ohio
Current Conditions -  °F | °C
As of 8:52 PM on Monday 24 Nov 2014 (Local Time) from KTOL Reporting Station
Overcast Overcast  
Wind Chill: 22°   Ceiling: 2400
Heat Index: 35°   Visibility: 10mi
Dew Point: 26°   Wind: 28mph
Humidity: 70%   Direction: 240°WSW
Pressure: 29.69"   Gusts: 44mph
Location:  41.72°N, 83.84°W
Report Text: KTOL 250152Z 24024G38KT 10SM BKN024 OVC039 02/M03 A2969 RMK AO2 PK WND 24040/0102 SLP057 T00171033
Loading
Personal Weather Stations






























Interactive Weather Map New forecast layout! Learn more

10-Day Weather Forecast

Advertisements
Track Severe Weather on mobile